Time;durP1;ratioP1;P1;durP2;ratioP2;P2;SDS_P1;SDS_P2;PMS_P1;PMS_P2;Temp;Humidity;BMP_temperature;BMP_pressure;BME280_temperature;BME280_humidity;BME280_pressure;Samples;Min_cycle;Max_cycle;Signal;HPM_P1;HPM_P2
2022/03/09 00:00:45;;;;;;;13.47;7.97;;;;;;;;;;4994306;28;20485;-85
2022/03/09 00:03:12;;;;;;;14.13;7.40;;;;;;;;;;4996926;28;20473;-92
2022/03/09 00:05:40;;;;;;;11.40;6.57;;;;;;;;;;4996802;28;20469;-85
2022/03/09 00:08:08;;;;;;;11.10;6.97;;;-1.90;99.90;;;;;;4996811;28;20460;-85
2022/03/09 00:10:35;;;;;;;13.20;6.57;;;;;;;;;;4995776;28;20460;-87
2022/03/09 00:13:02;;;;;;;10.70;6.00;;;;;;;;;;4997130;28;20497;-91
2022/03/09 00:15:29;;;;;;;10.40;6.50;;;;;;;;;;4996749;28;20449;-88
2022/03/09 00:17:56;;;;;;;11.77;7.20;;;;;;;;;;4995641;28;20968;-87
2022/03/09 00:20:23;;;;;;;10.43;6.17;;;;;;;;;;4996618;28;20468;-88
2022/03/09 00:22:50;;;;;;;11.40;6.27;;;;;;;;;;4997001;28;20456;-89
2022/03/09 00:25:19;;;;;;;10.30;5.90;;;;;;;;;;4992550;28;20864;-93
2022/03/09 00:27:46;;;;;;;10.63;6.50;;;;;;;;;;4996594;28;20472;-84
2022/03/09 00:30:13;;;;;;;8.60;5.90;;;;;;;;;;4996865;28;20449;-87
2022/03/09 00:32:41;;;;;;;7.77;5.20;;;-2.10;99.90;;;;;;4996401;28;20453;-88
2022/03/09 00:35:09;;;;;;;10.70;6.67;;;-2.10;99.90;;;;;;4996442;28;20445;-86
2022/03/09 00:37:36;;;;;;;8.13;5.03;;;;;;;;;;4996506;28;20453;-89
2022/03/09 00:40:03;;;;;;;8.70;6.07;;;;;;;;;;4995476;28;20453;-87
2022/03/09 00:42:35;;;;;;;9.77;6.50;;;-2.20;99.90;;;;;;4996352;28;20500;-91
2022/03/09 00:45:02;;;;;;;9.77;6.50;;;;;;;;;;4996459;28;20441;-92
2022/03/09 00:47:29;;;;;;;9.67;5.70;;;;;;;;;;4996343;28;20937;-92
2022/03/09 00:49:57;;;;;;;11.77;6.50;;;;;;;;;;4996412;28;20486;-91
2022/03/09 00:52:24;;;;;;;11.53;6.60;;;;;;;;;;4996003;28;20453;-90
2022/03/09 00:54:51;;;;;;;11.57;6.90;;;;;;;;;;4992010;28;20493;-89
2022/03/09 00:57:18;;;;;;;14.43;6.00;;;;;;;;;;4992991;28;20445;-88
2022/03/09 00:59:46;;;;;;;13.60;7.33;;;-2.30;99.90;;;;;;4995934;28;20460;-89
2022/03/09 01:02:13;;;;;;;17.93;8.43;;;;;;;;;;4995967;28;20988;-92
2022/03/09 01:04:41;;;;;;;10.80;6.63;;;;;;;;;;4988447;28;20477;-89
2022/03/09 01:07:08;;;;;;;13.30;6.93;;;;;;;;;;4996225;28;20461;-89
2022/03/09 01:09:40;;;;;;;14.17;6.80;;;;;;;;;;4996088;28;20445;-89
2022/03/09 01:12:08;;;;;;;15.67;7.03;;;-2.30;99.90;;;;;;4995023;28;20446;-87
2022/03/09 01:14:35;;;;;;;13.53;6.53;;;;;;;;;;4996065;28;20477;-87
2022/03/09 01:17:04;;;;;;;13.10;7.57;;;-2.40;99.90;;;;;;4992978;28;20453;-90
2022/03/09 01:19:31;;;;;;;12.90;6.83;;;;;;;;;;4995907;28;20458;-92
2022/03/09 01:21:58;;;;;;;10.17;6.27;;;;;;;;;;4995684;28;20453;-93
2022/03/09 01:24:25;;;;;;;10.63;6.30;;;;;;;;;;4995710;28;20468;-91
2022/03/09 01:26:52;;;;;;;10.97;5.47;;;;;;;;;;4994500;28;20448;-88
2022/03/09 01:29:19;;;;;;;10.67;6.03;;;;;;;;;;4994072;28;20484;-90
2022/03/09 01:31:46;;;;;;;12.67;6.27;;;;;;;;;;4992667;28;20501;-92
2022/03/09 01:34:15;;;;;;;8.43;5.40;;;-2.40;99.90;;;;;;4995445;28;20489;-91
2022/03/09 01:36:42;;;;;;;7.53;4.97;;;;;;;;;;4995465;28;20461;-92
2022/03/09 01:39:09;;;;;;;12.67;6.00;;;;;;;;;;4988886;28;20460;-90
2022/03/09 01:41:37;;;;;;;7.73;5.37;;;;;;;;;;4989790;28;20454;-88
2022/03/09 01:44:08;;;;;;;8.50;5.33;;;-2.40;99.90;;;;;;4992808;28;20543;-92
2022/03/09 01:46:36;;;;;;;13.87;6.03;;;;;;;;;;4990204;28;20420;-92
2022/03/09 01:49:03;;;;;;;10.00;6.17;;;;;;;;;;4990188;28;20496;-94
2022/03/09 01:51:32;;;;;;;8.90;5.77;;;-2.50;99.90;;;;;;4994992;28;20460;-91
2022/03/09 01:53:59;;;;;;;13.60;6.10;;;;;;;;;;4995418;28;20499;-91
2022/03/09 01:56:27;;;;;;;9.63;5.43;;;-2.60;99.90;;;;;;4994439;28;20457;-87
2022/03/09 01:58:55;;;;;;;7.07;4.80;;;;;;;;;;4994947;28;20437;-91
2022/03/09 02:01:22;;;;;;;9.27;5.53;;;;;;;;;;4994701;28;20477;-94
2022/03/09 02:03:49;;;;;;;10.57;5.70;;;;;;;;;;4994831;28;20449;-93
2022/03/09 02:06:16;;;;;;;9.90;5.60;;;;;;;;;;4994990;28;20449;-91
2022/03/09 02:11:30;;;;;;;9.43;6.20;;;;;;;;;;4994238;28;20797;-92
2022/03/09 02:13:57;;;;;;;8.93;5.33;;;;;;;;;;4991694;28;20539;-87
2022/03/09 02:16:24;;;;;;;7.93;4.80;;;;;;;;;;4994883;28;20807;-91
2022/03/09 02:18:51;;;;;;;6.80;4.57;;;;;;;;;;4995038;28;20445;-91
2022/03/09 02:21:20;;;;;;;8.03;4.90;;;-2.70;99.90;;;;;;4994924;28;20453;-92
2022/03/09 02:23:48;;;;;;;8.67;4.43;;;-2.80;99.90;;;;;;4991881;28;20565;-93
2022/03/09 02:26:16;;;;;;;7.73;4.50;;;;;;;;;;4990758;28;20464;-89
2022/03/09 02:28:48;;;;;;;9.30;5.20;;;-2.70;99.90;;;;;;4992001;28;20850;-91
2022/03/09 02:31:15;;;;;;;10.87;4.17;;;;;;;;;;4991743;28;20784;-93
2022/03/09 02:33:45;;;;;;;6.47;4.03;;;-2.70;99.90;;;;;;4994749;28;20489;-90
2022/03/09 02:36:12;;;;;;;9.20;4.83;;;;;;;;;;4989526;28;20457;-92
2022/03/09 02:38:39;;;;;;;5.53;4.00;;;;;;;;;;4994767;28;20520;-90
2022/03/09 02:41:07;;;;;;;13.40;5.00;;;-2.90;99.90;;;;;;4990016;28;20512;-93
2022/03/09 02:43:34;;;;;;;7.50;4.40;;;;;;;;;;4994358;28;20992;-87
2022/03/09 02:46:02;;;;;;;7.83;4.27;;;;;;;;;;4994711;28;20445;-93
2022/03/09 02:48:29;;;;;;;7.10;4.30;;;;;;;;;;4994278;28;20801;-93
2022/03/09 02:50:56;;;;;;;7.93;4.83;;;;;;;;;;4994335;28;20464;-91
2022/03/09 02:53:23;;;;;;;5.30;4.00;;;;;;;;;;4994422;28;20457;-90
2022/03/09 02:55:51;;;;;;;5.90;3.93;;;;;;;;;;4993100;28;20544;-84
2022/03/09 02:58:20;;;;;;;7.50;4.10;;;-2.90;99.90;;;;;;4991371;28;20448;-92
2022/03/09 03:00:47;;;;;;;10.73;4.77;;;;;;;;;;4994335;28;20477;-89
2022/03/09 03:03:14;;;;;;;5.50;4.50;;;;;;;;;;4988899;28;20445;-90
2022/03/09 03:05:41;;;;;;;8.90;5.20;;;;;;;;;;4993940;28;20815;-89
2022/03/09 03:08:09;;;;;;;9.30;5.30;;;;;;;;;;4994084;28;20445;-92
2022/03/09 03:10:36;;;;;;;5.83;4.20;;;;;;;;;;4992950;28;20468;-90
2022/03/09 03:13:03;;;;;;;5.73;4.37;;;;;;;;;;4994144;28;20456;-91
2022/03/09 03:15:31;;;;;;;7.93;4.70;;;-3.10;99.90;;;;;;4994009;28;20496;-87
2022/03/09 03:17:59;;;;;;;5.13;4.37;;;;;;;;;;4994116;28;20460;-90
2022/03/09 03:20:26;;;;;;;7.17;4.50;;;;;;;;;;4991349;28;20820;-89
2022/03/09 03:22:53;;;;;;;5.50;3.27;;;;;;;;;;4994201;28;20827;-93
2022/03/09 03:25:20;;;;;;;7.10;5.00;;;;;;;;;;4990132;28;20453;-92
2022/03/09 03:27:47;;;;;;;5.80;4.10;;;;;;;;;;4993931;28;20449;-90
2022/03/09 03:30:14;;;;;;;9.13;5.27;;;;;;;;;;4994333;28;20437;-85
2022/03/09 03:32:43;;;;;;;7.33;4.20;;;-3.20;99.90;;;;;;4994153;28;20929;-87
2022/03/09 03:35:10;;;;;;;8.80;4.27;;;;;;;;;;4994044;28;21081;-93
2022/03/09 03:37:37;;;;;;;6.50;4.30;;;;;;;;;;4994461;28;20806;-88
2022/03/09 03:40:05;;;;;;;9.40;4.97;;;-3.20;99.90;;;;;;4992934;28;20650;-91
2022/03/09 03:42:32;;;;;;;7.37;4.23;;;;;;;;;;4994023;28;20488;-90
2022/03/09 03:45:00;;;;;;;5.90;4.13;;;;;;;;;;4993961;28;20450;-94
2022/03/09 03:47:27;;;;;;;9.30;4.87;;;;;;;;;;4994319;28;20449;-91
2022/03/09 03:49:55;;;;;;;11.43;4.30;;;-3.40;99.90;;;;;;4994034;28;20420;-87
2022/03/09 03:52:22;;;;;;;6.63;4.10;;;;;;;;;;4994637;28;20808;-94
2022/03/09 03:54:49;;;;;;;7.03;4.10;;;;;;;;;;4996677;28;20492;-93
2022/03/09 03:57:16;;;;;;;11.83;4.50;;;;;;;;;;4997400;28;20476;-91
2022/03/09 03:59:43;;;;;;;6.30;4.53;;;;;;;;;;4997279;28;20479;-95
2022/03/09 04:02:10;;;;;;;6.03;4.80;;;;;;;;;;4996965;28;20465;-91
2022/03/09 04:04:38;;;;;;;7.47;5.40;;;;;;;;;;4997024;28;20819;-92
2022/03/09 04:07:06;;;;;;;11.77;4.60;;;-3.40;99.90;;;;;;4997093;28;20448;-87
2022/03/09 04:09:33;;;;;;;9.07;4.43;;;;;;;;;;4997055;28;20449;-93
2022/03/09 04:12:00;;;;;;;8.10;5.13;;;;;;;;;;4995869;28;20449;-89
2022/03/09 04:14:27;;;;;;;6.70;4.03;;;;;;;;;;4996669;28;20492;-87
2022/03/09 04:16:55;;;;;;;7.10;4.30;;;;;;;;;;4997072;28;20449;-87
2022/03/09 04:19:23;;;;;;;10.03;5.17;;;-3.50;99.90;;;;;;4996855;28;20940;-90
2022/03/09 04:21:50;;;;;;;10.57;4.97;;;;;;;;;;4995468;28;20951;-89
2022/03/09 04:24:18;;;;;;;9.97;4.83;;;-3.50;99.90;;;;;;4996602;28;20461;-88
2022/03/09 04:26:45;;;;;;;6.93;4.70;;;;;;;;;;4995840;28;20458;-88
2022/03/09 04:29:12;;;;;;;10.37;5.40;;;;;;;;;;4996953;28;20460;-87
2022/03/09 04:31:40;;;;;;;9.53;4.77;;;-3.60;99.90;;;;;;4996567;28;20456;-90
2022/03/09 04:34:07;;;;;;;8.70;5.03;;;;;;;;;;4996524;28;20481;-87
2022/03/09 04:36:34;;;;;;;9.47;4.67;;;;;;;;;;4996624;28;20437;-88
2022/03/09 04:39:02;;;;;;;7.50;4.30;;;-3.70;99.90;;;;;;4996534;28;20465;-92
2022/03/09 04:41:30;;;;;;;6.43;3.90;;;-5.40;99.90;;;;;;4995675;28;20453;-90
2022/03/09 04:43:57;;;;;;;9.10;4.50;;;;;;;;;;4996342;28;21012;-92
2022/03/09 04:46:25;;;;;;;5.57;4.00;;;;;;;;;;4993567;28;20450;-90
2022/03/09 04:48:52;;;;;;;8.27;4.77;;;;;;;;;;4996094;28;20926;-92
2022/03/09 04:51:20;;;;;;;7.13;4.63;;;;;;;;;;4996175;28;20445;-88
2022/03/09 04:53:47;;;;;;;10.13;4.67;;;;;;;;;;4996324;28;20477;-92
2022/03/09 04:56:15;;;;;;;9.57;4.87;;;-3.80;99.90;;;;;;4995104;28;20497;-89
2022/03/09 04:58:43;;;;;;;7.23;4.30;;;-3.80;99.90;;;;;;4996041;28;20437;-89
2022/03/09 05:01:10;;;;;;;5.93;4.23;;;;;;;;;;4995756;28;20457;-93
2022/03/09 05:03:37;;;;;;;7.57;4.20;;;;;;;;;;4995834;28;20464;-90
2022/03/09 05:06:04;;;;;;;10.30;4.93;;;;;;;;;;4995896;28;20429;-89
2022/03/09 05:08:32;;;;;;;6.40;4.60;;;;;;;;;;4993324;28;20458;-88
2022/03/09 05:10:59;;;;;;;6.10;4.80;;;;;;;;;;4994898;28;20458;-91
2022/03/09 05:13:26;;;;;;;7.07;4.70;;;;;;;;;;4996263;28;20468;-93
2022/03/09 05:15:54;;;;;;;8.53;4.50;;;-3.90;99.90;;;;;;4995537;28;20507;-90
2022/03/09 05:18:22;;;;;;;6.63;4.00;;;;;;;;;;4995536;28;20461;-91
2022/03/09 05:20:49;;;;;;;7.00;4.50;;;;;;;;;;4995916;28;20434;-90
2022/03/09 05:23:16;;;;;;;14.50;4.50;;;;;;;;;;4992875;28;20803;-89
2022/03/09 05:25:43;;;;;;;8.23;4.77;;;;;;;;;;4994699;28;20556;-93
2022/03/09 05:28:10;;;;;;;8.53;5.20;;;;;;;;;;4995699;28;20445;-90
2022/03/09 05:30:37;;;;;;;12.57;5.87;;;;;;;;;;4992612;28;20453;-88
2022/03/09 05:33:05;;;;;;;9.03;5.13;;;-3.90;99.90;;;;;;4996335;28;20813;-90
2022/03/09 05:35:32;;;;;;;9.13;5.80;;;;;;;;;;4996048;28;20516;-90
2022/03/09 05:38:00;;;;;;;11.50;6.57;;;;;;;;;;4995760;28;20465;-88
2022/03/09 05:40:30;;;;;;;9.67;6.40;;;;;;;;;;4995056;28;20449;-88
2022/03/09 05:42:57;;;;;;;9.87;5.70;;;;;;;;;;4996275;28;20473;-93
2022/03/09 05:45:24;;;;;;;9.50;5.60;;;;;;;;;;4995356;28;20460;-87
2022/03/09 05:47:51;;;;;;;15.60;7.03;;;;;;;;;;4995137;28;20450;-91
2022/03/09 05:50:19;;;;;;;8.80;5.70;;;-4.00;99.90;;;;;;4992195;28;20445;-89
2022/03/09 05:52:47;;;;;;;10.17;5.37;;;;;;;;;;4995328;28;20458;-84
2022/03/09 05:55:14;;;;;;;10.30;6.47;;;;;;;;;;4994554;28;20481;-89
2022/03/09 05:57:41;;;;;;;13.43;5.60;;;;;;;;;;4995448;28;20849;-91
2022/03/09 06:00:09;;;;;;;9.63;6.33;;;-3.80;99.90;;;;;;4995037;28;20472;-85
2022/03/09 06:02:36;;;;;;;7.87;5.20;;;;;;;;;;4995264;28;20525;-87
2022/03/09 06:05:04;;;;;;;8.93;5.23;;;;;;;;;;4995808;28;20458;-85
2022/03/09 06:07:32;;;;;;;15.13;6.20;;;-3.80;99.90;;;;;;4995436;28;20442;-87
2022/03/09 06:09:59;;;;;;;9.73;5.30;;;;;;;;;;4990358;28;20458;-90
2022/03/09 06:12:26;;;;;;;14.23;5.80;;;;;;;;;;4995566;28;20449;-88
2022/03/09 06:14:55;;;;;;;7.07;5.40;;;;;;;;;;4994996;28;20485;-85
2022/03/09 06:17:22;;;;;;;7.43;4.70;;;;;;;;;;4994130;28;20460;-84
2022/03/09 06:19:49;;;;;;;6.83;4.83;;;;;;;;;;4994775;28;20452;-87
2022/03/09 06:22:16;;;;;;;10.87;6.40;;;;;;;;;;4995126;28;20821;-91
2022/03/09 06:24:44;;;;;;;9.13;5.63;;;-2.20;99.90;;;;;;4995165;28;20453;-92
2022/03/09 06:27:11;;;;;;;9.10;5.67;;;;;;;;;;4994518;28;20465;-90
2022/03/09 06:29:39;;;;;;;6.37;5.20;;;;;;;;;;4994730;28;20449;-90
2022/03/09 06:32:06;;;;;;;7.90;5.53;;;;;;;;;;4994524;28;20445;-88
2022/03/09 06:34:33;;;;;;;10.90;6.47;;;;;;;;;;4991534;28;20453;-85
2022/03/09 06:37:00;;;;;;;24.67;6.17;;;;;;;;;;4992191;28;20926;-85
2022/03/09 06:39:27;;;;;;;19.80;7.73;;;;;;;;;;4995163;28;20449;-90
2022/03/09 06:41:56;;;;;;;11.70;6.80;;;-0.90;99.90;;;;;;4994092;28;20453;-87
2022/03/09 06:44:24;;;;;;;23.00;7.77;;;;;;;;;;4995121;28;20449;-90
2022/03/09 06:46:51;;;;;;;12.80;7.47;;;;;;;;;;4994869;28;20434;-88
2022/03/09 06:49:18;;;;;;;10.70;7.47;;;;;;;;;;4995006;28;20449;-92
2022/03/09 06:51:45;;;;;;;11.00;7.93;;;;;;;;;;4992076;28;20443;-86
2022/03/09 06:54:13;;;;;;;14.57;7.70;;;;;;;;;;4994616;28;20449;-93
2022/03/09 06:56:40;;;;;;;17.53;7.57;;;;;;;;;;4993119;28;20493;-90
2022/03/09 06:59:08;;;;;;;15.50;7.50;;;1.70;97.90;;;;;;4994566;28;20465;-89
2022/03/09 07:01:35;;;;;;;14.17;7.43;;;;;;;;;;4992118;28;20453;-89
2022/03/09 07:04:02;;;;;;;24.13;10.37;;;;;;;;;;4994486;28;20968;-91
2022/03/09 07:06:29;;;;;;;10.80;7.67;;;;;;;;;;4994864;28;20464;-91
2022/03/09 07:08:57;;;;;;;10.00;7.60;;;;;;;;;;4994860;28;20449;-85
2022/03/09 07:11:24;;;;;;;10.20;7.80;;;;;;;;;;4993808;28;20445;-90
2022/03/09 07:13:51;;;;;;;8.80;6.00;;;;;;;;;;4945545;28;20464;-90
2022/03/09 07:16:19;;;;;;;13.07;8.67;;;;;;;;;;4993507;28;20485;-87
2022/03/09 07:18:47;;;;;;;9.53;7.30;;;2.90;91.10;;;;;;4995826;28;20457;-87
2022/03/09 07:21:14;;;;;;;9.13;8.10;;;;;;;;;;4946769;28;20449;-87
2022/03/09 07:23:42;;;;;;;10.93;8.10;;;;;;;;;;4997971;28;20552;-90
2022/03/09 07:26:09;;;;;;;7.47;6.37;;;;;;;;;;4997201;28;20463;-94
2022/03/09 07:28:37;;;;;;;11.00;7.37;;;;;;;;;;5002222;28;20452;-87
2022/03/09 07:31:04;;;;;;;9.33;5.57;;;;;;;;;;5002518;28;20452;-88
2022/03/09 07:33:32;;;;;;;10.83;7.30;;;3.30;89.00;;;;;;5001838;28;20453;-88
2022/03/09 07:36:01;;;;;;;12.17;8.60;;;;;;;;;;5006280;28;20492;-87
2022/03/09 07:38:28;;;;;;;8.77;6.37;;;;;;;;;;5009801;28;20445;-89
2022/03/09 07:40:56;;;;;;;9.30;7.07;;;;;;;;;;5009866;28;20489;-91
2022/03/09 07:43:23;;;;;;;9.53;7.60;;;;;;;;;;5006059;28;20480;-90
2022/03/09 07:45:50;;;;;;;12.20;9.17;;;;;;;;;;5006598;28;20495;-86
2022/03/09 07:48:17;;;;;;;15.60;10.90;;;;;;;;;;5006173;28;20453;-89
2022/03/09 07:50:46;;;;;;;8.50;4.73;;;;;;;;;;5002149;28;20441;-87
2022/03/09 07:53:14;;;;;;;11.57;8.30;;;;;;;;;;5009324;28;20461;-88
2022/03/09 07:55:41;;;;;;;14.60;9.90;;;;;;;;;;5007879;28;20489;-86
2022/03/09 07:58:08;;;;;;;12.57;9.40;;;;;;;;;;5010952;28;20458;-90
2022/03/09 08:00:35;;;;;;;11.37;8.73;;;;;;;;;;5004272;28;20492;-89
2022/03/09 08:03:02;;;;;;;10.27;9.13;;;;;;;;;;5008226;28;20878;-89
2022/03/09 08:05:29;;;;;;;14.90;8.70;;;;;;;;;;4999676;28;20480;-86
2022/03/09 08:07:57;;;;;;;24.50;16.67;;;6.50;75.10;;;;;;5002791;28;20445;-87
2022/03/09 08:10:25;;;;;;;16.17;8.27;;;;;;;;;;5004162;28;20975;-85
2022/03/09 08:12:52;;;;;;;12.70;10.00;;;;;;;;;;5003112;28;20445;-86
2022/03/09 08:15:19;;;;;;;9.67;7.30;;;;;;;;;;5003086;28;20484;-83
2022/03/09 08:17:46;;;;;;;12.57;8.63;;;;;;;;;;4999684;28;20467;-86
2022/03/09 08:20:14;;;;;;;13.37;9.90;;;;;;;;;;4996747;28;20837;-85
2022/03/09 08:22:42;;;;;;;17.57;12.30;;;;;;;;;;5001355;28;20853;-86
2022/03/09 08:25:11;;;;;;;15.40;8.77;;;8.00;71.00;;;;;;5010339;28;20461;-84
2022/03/09 08:27:38;;;;;;;12.30;8.23;;;;;;;;;;5002078;28;20477;-87
2022/03/09 08:30:06;;;;;;;12.17;9.03;;;9.20;65.80;;;;;;5004436;28;20457;-87
2022/03/09 08:32:33;;;;;;;12.63;11.10;;;;;;;;;;5005854;28;20445;-86
2022/03/09 08:35:00;;;;;;;8.47;7.17;;;;;;;;;;5009755;28;20453;-87
2022/03/09 08:37:31;;;;;;;10.67;6.53;;;;;;;;;;5023427;23;20533;-87
2022/03/09 08:39:58;;;;;;;10.10;8.03;;;;;;;;;;5018625;28;20440;-89
2022/03/09 08:42:27;;;;;;;9.27;7.90;;;;;;;;;;5016662;28;20774;-93
2022/03/09 08:44:54;;;;;;;12.00;8.83;;;;;;;;;;5033301;22;20482;-93
2022/03/09 08:47:21;;;;;;;10.20;8.30;;;;;;;;;;5016242;28;20448;-91
2022/03/09 08:49:48;;;;;;;12.13;8.50;;;;;;;;;;5018296;28;20471;-91
2022/03/09 08:52:16;;;;;;;13.70;8.93;;;;;;;;;;5018023;28;20460;-90
2022/03/09 08:54:43;;;;;;;12.30;8.40;;;;;;;;;;5017146;28;20866;-90
2022/03/09 08:57:10;;;;;;;14.03;9.20;;;;;;;;;;5012968;28;20546;-91
2022/03/09 08:59:38;;;;;;;11.97;8.53;;;8.70;66.80;;;;;;5016279;28;20480;-92
2022/03/09 09:02:06;;;;;;;11.90;8.70;;;;;;;;;;5018998;28;20448;-86
2022/03/09 09:04:33;;;;;;;11.33;9.50;;;;;;;;;;5018096;28;20433;-86
2022/03/09 09:07:00;;;;;;;10.83;8.90;;;;;;;;;;5018714;28;20527;-87
2022/03/09 09:09:27;;;;;;;10.10;8.60;;;;;;;;;;5018831;28;20453;-87
2022/03/09 09:11:55;;;;;;;11.73;9.30;;;;;;;;;;5001738;28;20441;-87
2022/03/09 09:14:22;;;;;;;9.50;8.00;;;;;;;;;;5000106;28;20461;-86
2022/03/09 09:16:50;;;;;;;11.63;9.60;;;9.50;60.40;;;;;;5022799;28;21033;-88
2022/03/09 09:19:18;;;;;;;13.00;9.73;;;;;;;;;;5020357;28;20453;-89
2022/03/09 09:21:45;;;;;;;17.07;11.90;;;;;;;;;;5006347;28;20463;-89
2022/03/09 09:24:12;;;;;;;14.60;10.47;;;;;;;;;;5016945;28;20445;-87
2022/03/09 09:26:40;;;;;;;14.13;9.63;;;;;;;;;;5002922;28;20449;-90
2022/03/09 09:29:09;;;;;;;16.13;12.10;;;;;;;;;;5000887;28;20453;-87
2022/03/09 09:31:36;;;;;;;12.40;10.43;;;;;;;;;;5001453;28;20511;-89
2022/03/09 09:34:04;;;;;;;27.87;21.40;;;9.30;58.80;;;;;;5002405;28;20785;-88
2022/03/09 09:36:32;;;;;;;14.40;11.40;;;;;;;;;;5002456;28;20489;-87
2022/03/09 09:38:59;;;;;;;16.93;11.50;;;;;;;;;;5003484;28;20464;-92
2022/03/09 09:41:26;;;;;;;16.30;11.60;;;10.40;86.20;;;;;;5005151;28;20434;-88
2022/03/09 09:43:53;;;;;;;12.80;9.23;;;;;;;;;;5005917;28;20465;-90
2022/03/09 09:46:21;;;;;;;11.30;8.93;;;9.40;79.70;;;;;;4998195;28;20929;-90
2022/03/09 09:48:48;;;;;;;12.60;9.90;;;;;;;;;;4995681;28;20961;-88
2022/03/09 09:51:16;;;;;;;12.50;10.40;;;10.10;57.10;;;;;;4999080;28;20500;-87
2022/03/09 09:53:45;;;;;;;15.40;11.50;;;11.00;55.50;;;;;;5000782;28;20453;-88
2022/03/09 09:56:13;;;;;;;12.63;9.67;;;;;;;;;;5001560;28;20489;-88
2022/03/09 09:58:41;;;;;;;14.10;11.83;;;11.70;87.70;;;;;;5014460;23;20495;-87
2022/03/09 10:01:08;;;;;;;12.47;10.20;;;;;;;;;;5023276;28;20452;-87
2022/03/09 10:03:36;;;;;;;14.80;9.67;;;12.70;52.40;;;;;;5033426;23;20502;-87
2022/03/09 10:06:03;;;;;;;14.07;11.90;;;;;;;;;;5019993;28;20448;-87
2022/03/09 10:08:31;;;;;;;15.50;13.17;;;13.50;72.90;;;;;;5021171;28;20448;-87
2022/03/09 10:11:01;;;;;;;21.10;15.20;;;13.60;49.30;;;;;;5024550;28;20967;-88
2022/03/09 10:13:30;;;;;;;12.73;11.30;;;14.20;49.50;;;;;;5021713;28;20448;-90
2022/03/09 10:16:12;;;;;;;14.60;11.30;;;14.20;82.50;;;;;;5015969;28;20477;-87
2022/03/09 10:18:40;;;;;;;14.90;12.20;;;14.40;74.70;;;;;;5014883;28;20444;-88
2022/03/09 10:21:12;;;;;;;15.87;11.10;;;14.50;84.50;;;;;;5019743;28;20936;-88
2022/03/09 10:24:02;;;;;;;15.07;11.57;;;15.00;70.40;;;;;;5017425;23;20485;-89
2022/03/09 10:26:44;;;;;;;12.97;10.97;;;14.50;49.20;;;;;;5021501;28;20479;-88
2022/03/09 10:29:13;;;;;;;17.90;12.27;;;14.20;48.80;;;;;;5019669;28;20487;-88
2022/03/09 10:31:42;;;;;;;13.10;10.80;;;13.90;49.00;;;;;;5021423;28;20452;-89
2022/03/09 10:34:11;;;;;;;20.47;13.00;;;14.10;48.40;;;;;;5020470;28;20455;-88
2022/03/09 10:36:52;;;;;;;12.60;11.30;;;15.00;48.70;;;;;;5023078;28;20480;-89
2022/03/09 10:39:23;;;;;;;12.80;11.43;;;15.20;81.50;;;;;;5021982;28;20444;-88
2022/03/09 10:41:50;;;;;;;14.10;12.07;;;;;;;;;;5020723;28;20449;-89
2022/03/09 10:44:18;;;;;;;16.63;13.17;;;;;;;;;;5022496;28;20460;-88
2022/03/09 10:46:47;;;;;;;12.77;11.10;;;15.70;45.10;;;;;;5015528;28;20460;-88
2022/03/09 10:49:18;;;;;;;13.33;11.63;;;15.90;45.70;;;;;;5021446;28;20531;-90
2022/03/09 10:51:49;;;;;;;19.83;12.07;;;16.10;43.20;;;;;;5022211;28;20455;-89
2022/03/09 10:54:24;;;;;;;12.40;11.00;;;15.60;64.00;;;;;;5019519;28;20459;-89
2022/03/09 10:56:52;;;;;;;28.30;13.03;;;;;;;;;;5036619;28;20539;-90
2022/03/09 10:59:24;;;;;;;20.37;12.30;;;16.10;42.20;;;;;;5026500;28;20588;-94
2022/03/09 11:02:04;;;;;;;13.57;11.30;;;16.50;61.80;;;;;;5019585;28;20456;-93
2022/03/09 11:04:31;;;;;;;13.97;11.60;;;;;;;;;;5023258;28;20445;-89
2022/03/09 11:06:59;;;;;;;14.00;11.50;;;17.00;40.80;;;;;;5008003;28;20488;-88
2022/03/09 11:09:27;;;;;;;13.77;12.00;;;16.80;63.70;;;;;;5009523;28;20507;-88
2022/03/09 11:11:55;;;;;;;13.03;11.63;;;;;;;;;;5010356;28;20441;-89
2022/03/09 11:14:26;;;;;;;13.43;11.97;;;16.00;39.80;;;;;;5012522;28;20529;-89
2022/03/09 11:16:57;;;;;;;15.73;11.40;;;15.80;72.00;;;;;;5016202;28;20440;-88
2022/03/09 11:19:25;;;;;;;13.67;11.93;;;15.90;41.20;;;;;;4977848;28;20464;-88
2022/03/09 11:21:52;;;;;;;12.53;11.23;;;;;;;;;;5005416;28;20455;-87
2022/03/09 11:24:20;;;;;;;14.10;12.60;;;16.00;40.60;;;;;;5006501;28;20469;-89
2022/03/09 11:26:50;;;;;;;13.27;11.27;;;16.30;65.00;;;;;;5006319;28;20481;-88
2022/03/09 11:29:28;;;;;;;13.20;11.60;;;16.50;41.20;;;;;;5015557;23;20503;-88
2022/03/09 11:31:55;;;;;;;17.53;11.43;;;;;;;;;;5034601;28;20444;-89
2022/03/09 11:34:37;;;;;;;13.00;11.50;;;16.70;70.70;;;;;;5033721;28;20987;-88
2022/03/09 11:37:06;;;;;;;17.93;13.47;;;16.90;65.20;;;;;;5021929;28;20448;-89
2022/03/09 11:39:34;;;;;;;12.10;10.80;;;;;;;;;;5025930;28;20459;-87
2022/03/09 11:42:31;;;;;;;16.47;12.47;;;14.70;61.80;;;;;;5027069;28;20445;-88
2022/03/09 11:45:30;;;;;;;13.13;11.57;;;15.40;41.80;;;;;;5028728;28;20523;-89
2022/03/09 11:48:00;;;;;;;15.37;12.27;;;15.60;41.50;;;;;;5028315;28;20495;-90
2022/03/09 11:50:28;;;;;;;15.30;11.93;;;;;;;;;;5031932;28;20455;-89
2022/03/09 11:52:58;;;;;;;13.97;10.97;;;15.40;41.20;;;;;;5037422;22;20495;-88
2022/03/09 11:55:25;;;;;;;15.40;10.70;;;;;;;;;;5030077;28;20456;-89
2022/03/09 11:58:14;;;;;;;15.37;11.00;;;14.40;40.60;;;;;;5027926;28;20477;-89
2022/03/09 12:01:00;;;;;;;16.67;12.83;;;15.00;42.10;;;;;;5030369;28;20452;-89
2022/03/09 12:03:37;;;;;;;15.40;12.27;;;14.90;71.30;;;;;;5027079;28;20475;-89
2022/03/09 12:06:04;;;;;;;15.53;12.53;;;;;;;;;;5029260;28;20536;-89
2022/03/09 12:08:46;;;;;;;15.33;11.80;;;15.70;50.80;;;;;;5030560;28;20488;-89
2022/03/09 12:11:13;;;;;;;17.87;13.67;;;;;;;;;;5028073;28;20497;-89
2022/03/09 12:13:48;;;;;;;15.23;12.63;;;16.50;68.70;;;;;;5032800;28;20433;-89
2022/03/09 12:16:24;;;;;;;16.37;13.30;;;;;;;;;;5031116;28;20456;-89
2022/03/09 12:19:15;;;;;;;14.87;12.50;;;16.20;72.00;;;;;;5029515;28;20452;-89
2022/03/09 12:22:01;;;;;;;17.27;13.60;;;16.70;62.60;;;;;;5032412;28;20444;-88
2022/03/09 12:24:39;;;;;;;19.70;13.50;;;;;;;;;;5032444;28;20448;-90
2022/03/09 12:27:27;;;;;;;16.27;13.33;;;16.00;69.80;;;;;;5030899;28;20487;-90
2022/03/09 12:29:56;;;;;;;15.53;13.03;;;15.30;42.80;;;;;;5024953;28;20456;-88
2022/03/09 12:32:33;;;;;;;17.30;13.43;;;;;;;;;;5034086;22;20491;-93
2022/03/09 12:35:07;;;;;;;17.40;13.87;;;15.10;41.40;;;;;;5030059;28;20437;-93
2022/03/09 12:37:34;;;;;;;15.80;12.97;;;;;;;;;;5026051;28;20447;-94
2022/03/09 12:40:03;;;;;;;21.27;14.93;;;;;;;;;;5025182;28;20444;-94
2022/03/09 12:42:31;;;;;;;19.70;13.93;;;;;;;;;;5022605;28;20552;-95
2022/03/09 12:45:01;;;;;;;21.73;14.60;;;15.90;40.40;;;;;;5021356;28;20472;-90
2022/03/09 12:47:28;;;;;;;20.27;13.67;;;;;;;;;;5018109;28;20496;-89
2022/03/09 12:49:56;;;;;;;17.73;14.40;;;15.50;54.40;;;;;;5018303;28;20448;-92
2022/03/09 12:52:24;;;;;;;16.77;13.17;;;16.00;39.80;;;;;;5025570;28;20533;-93
2022/03/09 12:54:52;;;;;;;17.00;13.00;;;16.20;39.10;;;;;;5016453;28;20475;-90
2022/03/09 12:57:23;;;;;;;20.03;15.27;;;16.80;57.60;;;;;;5020772;28;20471;-89
2022/03/09 12:59:56;;;;;;;16.50;13.30;;;16.20;58.20;;;;;;5022286;28;20471;-89
2022/03/09 13:02:25;;;;;;;20.80;12.90;;;15.70;59.70;;;;;;5017576;28;20458;-88
2022/03/09 13:05:14;;;;;;;13.70;10.97;;;16.30;37.40;;;;;;5017173;28;20432;-91
2022/03/09 13:07:41;;;;;;;13.00;10.77;;;;;;;;;;5015600;28;20535;-89
2022/03/09 13:10:10;;;;;;;15.57;12.03;;;16.30;57.40;;;;;;5015672;28;20463;-90
2022/03/09 13:12:47;;;;;;;18.00;13.20;;;17.00;37.10;;;;;;5016385;28;20518;-91
2022/03/09 13:15:14;;;;;;;13.80;11.30;;;;;;;;;;5016050;28;20468;-90
2022/03/09 13:17:49;;;;;;;16.67;12.33;;;17.10;36.20;;;;;;5017001;28;20448;-91
2022/03/09 13:20:17;;;;;;;16.27;12.47;;;17.40;36.40;;;;;;5017058;28;20502;-90
2022/03/09 13:22:45;;;;;;;17.10;12.20;;;16.70;34.90;;;;;;5016251;28;20452;-87
2022/03/09 13:25:13;;;;;;;15.50;11.77;;;17.00;35.30;;;;;;5016693;28;20456;-89
2022/03/09 13:27:40;;;;;;;13.20;11.17;;;;;;;;;;5022025;28;20480;-88
2022/03/09 13:30:16;;;;;;;13.83;11.03;;;16.50;53.50;;;;;;5028661;28;20433;-91
2022/03/09 13:32:44;;;;;;;13.37;10.93;;;;;;;;;;5039438;28;20468;-90
2022/03/09 13:35:18;;;;;;;14.27;10.43;;;16.70;59.70;;;;;;5026015;28;20433;-91
2022/03/09 13:37:45;;;;;;;13.67;11.30;;;;;;;;;;5023747;28;20445;-91
2022/03/09 13:40:44;;;;;;;43.97;17.63;;;16.10;33.70;;;;;;5034932;22;20515;-92
2022/03/09 13:43:11;;;;;;;18.90;12.50;;;;;;;;;;5016998;28;20448;-92
2022/03/09 13:45:41;;;;;;;12.83;9.80;;;;;;;;;;5015800;28;20452;-90
2022/03/09 13:48:19;;;;;;;13.87;11.03;;;17.40;34.60;;;;;;5015433;28;20487;-92
2022/03/09 13:50:59;;;;;;;15.33;11.37;;;16.70;59.90;;;;;;5014918;28;20542;-90
2022/03/09 13:53:32;;;;;;;14.43;12.00;;;17.00;34.10;;;;;;5014209;28;20452;-89
2022/03/09 13:55:59;;;;;;;17.83;12.27;;;;;;;;;;5011240;28;21077;-88
2022/03/09 13:58:28;;;;;;;14.13;10.93;;;17.20;34.60;;;;;;5014617;28;20475;-91